Avalon, Mississippi
Current Conditions -  °F | °C
As of 12:53 AM on Saturday 29 Nov 2014 (Local Time) from KGWO Reporting Station
Clear Clear  
Wind Chill: 42°   Ceiling: Unl
Heat Index: 47°   Visibility: 10mi
Dew Point: 33°   Wind: 10mph
Humidity: 59%   Direction: 190°S
Pressure: 30.14"   Gusts: NA
Location:  33.65°N, 90.09°W
Report Text: KGWO 290653Z AUTO 19009KT 10SM CLR 08/01 A3014 RMK AO2 SLP206 T00830006 TSNO
Loading
Personal Weather Stations






























Interactive Weather Map New forecast layout! Learn more

10-Day Weather Forecast

Advertisements
Track Severe Weather on mobile